sensor_id;sensor_type;location;lat;lon;timestamp;temperature;humidity
12853;DHT22;6495;51.808;7.478;2023-12-29T00:00:25;10.70;99.90
12853;DHT22;6495;51.808;7.478;2023-12-29T00:02:53;10.70;99.90
12853;DHT22;6495;51.808;7.478;2023-12-29T00:05:22;10.70;99.90
12853;DHT22;6495;51.808;7.478;2023-12-29T00:07:50;10.70;99.90
12853;DHT22;6495;51.808;7.478;2023-12-29T00:10:20;10.70;99.90
12853;DHT22;6495;51.808;7.478;2023-12-29T00:12:48;10.70;99.90
12853;DHT22;6495;51.808;7.478;2023-12-29T00:15:18;10.70;99.90
12853;DHT22;6495;51.808;7.478;2023-12-29T00:17:46;10.70;99.90
12853;DHT22;6495;51.808;7.478;2023-12-29T00:20:15;10.70;99.90
12853;DHT22;6495;51.808;7.478;2023-12-29T00:23:03;10.80;99.90
12853;DHT22;6495;51.808;7.478;2023-12-29T00:25:37;10.80;99.90
12853;DHT22;6495;51.808;7.478;2023-12-29T00:28:06;10.80;99.90
12853;DHT22;6495;51.808;7.478;2023-12-29T00:30:38;10.80;99.90
12853;DHT22;6495;51.808;7.478;2023-12-29T00:33:26;10.80;99.90
12853;DHT22;6495;51.808;7.478;2023-12-29T00:35:54;10.80;99.90
12853;DHT22;6495;51.808;7.478;2023-12-29T00:38:25;10.80;99.90
12853;DHT22;6495;51.808;7.478;2023-12-29T00:40:56;10.80;99.90
12853;DHT22;6495;51.808;7.478;2023-12-29T00:43:24;10.80;99.90
12853;DHT22;6495;51.808;7.478;2023-12-29T00:45:53;10.80;99.90
12853;DHT22;6495;51.808;7.478;2023-12-29T00:48:21;10.80;99.90
12853;DHT22;6495;51.808;7.478;2023-12-29T00:50:50;10.80;99.90
12853;DHT22;6495;51.808;7.478;2023-12-29T00:53:18;10.80;99.90
12853;DHT22;6495;51.808;7.478;2023-12-29T00:55:46;10.80;99.90
12853;DHT22;6495;51.808;7.478;2023-12-29T00:58:16;10.80;99.90
12853;DHT22;6495;51.808;7.478;2023-12-29T01:00:45;10.80;99.90
12853;DHT22;6495;51.808;7.478;2023-12-29T01:03:13;10.80;99.90
12853;DHT22;6495;51.808;7.478;2023-12-29T01:05:42;10.80;99.90
12853;DHT22;6495;51.808;7.478;2023-12-29T01:08:11;10.80;99.90
12853;DHT22;6495;51.808;7.478;2023-12-29T01:10:39;10.80;99.90
12853;DHT22;6495;51.808;7.478;2023-12-29T01:13:08;10.90;99.90
12853;DHT22;6495;51.808;7.478;2023-12-29T01:15:37;10.80;99.90
12853;DHT22;6495;51.808;7.478;2023-12-29T01:18:07;10.90;99.90
12853;DHT22;6495;51.808;7.478;2023-12-29T01:20:35;10.90;99.90
12853;DHT22;6495;51.808;7.478;2023-12-29T01:23:05;10.90;99.90
12853;DHT22;6495;51.808;7.478;2023-12-29T01:25:34;10.90;99.90
12853;DHT22;6495;51.808;7.478;2023-12-29T01:28:03;10.90;99.90
12853;DHT22;6495;51.808;7.478;2023-12-29T01:30:32;10.90;99.90
12853;DHT22;6495;51.808;7.478;2023-12-29T01:33:01;10.90;99.90
12853;DHT22;6495;51.808;7.478;2023-12-29T01:35:30;10.90;99.90
12853;DHT22;6495;51.808;7.478;2023-12-29T01:37:58;10.90;99.90
12853;DHT22;6495;51.808;7.478;2023-12-29T01:40:28;10.90;99.90
12853;DHT22;6495;51.808;7.478;2023-12-29T01:42:56;10.90;99.90
12853;DHT22;6495;51.808;7.478;2023-12-29T01:45:25;10.90;99.90
12853;DHT22;6495;51.808;7.478;2023-12-29T01:47:54;10.80;99.90
12853;DHT22;6495;51.808;7.478;2023-12-29T01:50:24;10.80;99.90
12853;DHT22;6495;51.808;7.478;2023-12-29T01:52:53;10.80;99.90
12853;DHT22;6495;51.808;7.478;2023-12-29T01:55:24;10.70;99.90
12853;DHT22;6495;51.808;7.478;2023-12-29T01:57:54;10.70;99.90
12853;DHT22;6495;51.808;7.478;2023-12-29T02:00:25;10.70;99.90
12853;DHT22;6495;51.808;7.478;2023-12-29T02:02:54;10.70;99.90
12853;DHT22;6495;51.808;7.478;2023-12-29T02:05:25;10.70;99.90
12853;DHT22;6495;51.808;7.478;2023-12-29T02:07:56;10.60;99.90
12853;DHT22;6495;51.808;7.478;2023-12-29T02:10:25;10.60;99.90
12853;DHT22;6495;51.808;7.478;2023-12-29T02:12:53;10.60;99.90
12853;DHT22;6495;51.808;7.478;2023-12-29T02:15:24;10.60;99.90
12853;DHT22;6495;51.808;7.478;2023-12-29T02:17:59;10.60;99.90
12853;DHT22;6495;51.808;7.478;2023-12-29T02:20:32;10.60;99.90
12853;DHT22;6495;51.808;7.478;2023-12-29T02:23:00;10.50;99.90
12853;DHT22;6495;51.808;7.478;2023-12-29T02:25:31;10.50;99.90
12853;DHT22;6495;51.808;7.478;2023-12-29T02:28:03;10.50;99.90
12853;DHT22;6495;51.808;7.478;2023-12-29T02:30:41;10.50;99.90
12853;DHT22;6495;51.808;7.478;2023-12-29T02:33:19;10.40;99.90
12853;DHT22;6495;51.808;7.478;2023-12-29T02:35:56;10.40;99.90
12853;DHT22;6495;51.808;7.478;2023-12-29T02:38:27;10.40;99.90
12853;DHT22;6495;51.808;7.478;2023-12-29T02:40:58;10.30;99.90
12853;DHT22;6495;51.808;7.478;2023-12-29T02:43:27;10.30;99.90
12853;DHT22;6495;51.808;7.478;2023-12-29T02:45:55;10.30;99.90
12853;DHT22;6495;51.808;7.478;2023-12-29T02:48:42;10.30;99.90
12853;DHT22;6495;51.808;7.478;2023-12-29T02:51:11;10.20;99.90
12853;DHT22;6495;51.808;7.478;2023-12-29T02:53:39;10.20;99.90
12853;DHT22;6495;51.808;7.478;2023-12-29T02:56:08;10.10;99.90
12853;DHT22;6495;51.808;7.478;2023-12-29T02:58:37;10.10;99.90
12853;DHT22;6495;51.808;7.478;2023-12-29T03:01:05;10.10;99.90
12853;DHT22;6495;51.808;7.478;2023-12-29T03:03:34;10.00;99.90
12853;DHT22;6495;51.808;7.478;2023-12-29T03:06:02;10.00;99.90
12853;DHT22;6495;51.808;7.478;2023-12-29T03:08:31;10.00;99.90
12853;DHT22;6495;51.808;7.478;2023-12-29T03:10:59;9.90;99.90
12853;DHT22;6495;51.808;7.478;2023-12-29T03:13:29;9.90;99.90
12853;DHT22;6495;51.808;7.478;2023-12-29T03:15:57;9.90;99.90
12853;DHT22;6495;51.808;7.478;2023-12-29T03:18:26;9.80;99.90
12853;DHT22;6495;51.808;7.478;2023-12-29T03:20:54;9.80;99.90
12853;DHT22;6495;51.808;7.478;2023-12-29T03:23:22;9.80;99.90
12853;DHT22;6495;51.808;7.478;2023-12-29T03:25:51;9.80;99.90
12853;DHT22;6495;51.808;7.478;2023-12-29T03:28:20;9.80;99.90
12853;DHT22;6495;51.808;7.478;2023-12-29T03:30:50;9.80;99.90
12853;DHT22;6495;51.808;7.478;2023-12-29T03:33:18;9.80;99.90
12853;DHT22;6495;51.808;7.478;2023-12-29T03:35:47;9.80;99.90
12853;DHT22;6495;51.808;7.478;2023-12-29T03:38:15;9.80;99.90
12853;DHT22;6495;51.808;7.478;2023-12-29T03:40:43;9.80;99.90
12853;DHT22;6495;51.808;7.478;2023-12-29T03:43:12;9.80;99.90
12853;DHT22;6495;51.808;7.478;2023-12-29T03:45:40;9.80;99.90
12853;DHT22;6495;51.808;7.478;2023-12-29T03:48:10;9.80;99.90
12853;DHT22;6495;51.808;7.478;2023-12-29T03:50:39;9.80;99.90
12853;DHT22;6495;51.808;7.478;2023-12-29T03:53:09;9.80;99.90
12853;DHT22;6495;51.808;7.478;2023-12-29T03:55:37;9.80;99.90
12853;DHT22;6495;51.808;7.478;2023-12-29T03:58:05;9.90;99.90
12853;DHT22;6495;51.808;7.478;2023-12-29T04:00:35;9.80;99.90
12853;DHT22;6495;51.808;7.478;2023-12-29T04:03:04;9.90;99.90
12853;DHT22;6495;51.808;7.478;2023-12-29T04:05:34;9.90;99.90
12853;DHT22;6495;51.808;7.478;2023-12-29T04:08:04;9.90;99.90
12853;DHT22;6495;51.808;7.478;2023-12-29T04:10:33;9.90;99.90
12853;DHT22;6495;51.808;7.478;2023-12-29T04:13:02;9.90;99.90
12853;DHT22;6495;51.808;7.478;2023-12-29T04:15:30;9.90;99.90
12853;DHT22;6495;51.808;7.478;2023-12-29T04:17:59;9.90;99.90
12853;DHT22;6495;51.808;7.478;2023-12-29T04:20:28;9.90;99.90
12853;DHT22;6495;51.808;7.478;2023-12-29T04:22:58;9.90;99.90
12853;DHT22;6495;51.808;7.478;2023-12-29T04:25:28;9.90;99.90
12853;DHT22;6495;51.808;7.478;2023-12-29T04:27:56;9.90;99.90
12853;DHT22;6495;51.808;7.478;2023-12-29T04:30:25;9.90;99.90
12853;DHT22;6495;51.808;7.478;2023-12-29T04:32:57;9.90;99.90
12853;DHT22;6495;51.808;7.478;2023-12-29T04:35:25;9.90;99.90
12853;DHT22;6495;51.808;7.478;2023-12-29T04:37:54;9.90;99.90
12853;DHT22;6495;51.808;7.478;2023-12-29T04:40:23;9.90;99.90
12853;DHT22;6495;51.808;7.478;2023-12-29T04:42:52;9.90;99.90
12853;DHT22;6495;51.808;7.478;2023-12-29T04:45:20;9.90;99.90
12853;DHT22;6495;51.808;7.478;2023-12-29T04:47:49;9.90;99.90
12853;DHT22;6495;51.808;7.478;2023-12-29T04:50:17;9.90;99.90
12853;DHT22;6495;51.808;7.478;2023-12-29T04:52:45;9.90;99.90
12853;DHT22;6495;51.808;7.478;2023-12-29T04:55:14;9.90;99.90
12853;DHT22;6495;51.808;7.478;2023-12-29T04:57:43;9.90;99.90
12853;DHT22;6495;51.808;7.478;2023-12-29T05:00:13;9.90;99.90
12853;DHT22;6495;51.808;7.478;2023-12-29T05:02:42;9.90;99.90
12853;DHT22;6495;51.808;7.478;2023-12-29T05:05:10;9.90;99.90
12853;DHT22;6495;51.808;7.478;2023-12-29T05:07:38;9.90;99.90
12853;DHT22;6495;51.808;7.478;2023-12-29T05:10:08;9.90;99.90
12853;DHT22;6495;51.808;7.478;2023-12-29T05:12:37;9.90;99.90
12853;DHT22;6495;51.808;7.478;2023-12-29T05:15:07;9.90;99.90
12853;DHT22;6495;51.808;7.478;2023-12-29T05:17:36;9.90;99.90
12853;DHT22;6495;51.808;7.478;2023-12-29T05:20:07;9.90;99.90
12853;DHT22;6495;51.808;7.478;2023-12-29T05:22:36;9.90;99.90
12853;DHT22;6495;51.808;7.478;2023-12-29T05:25:06;10.00;99.90
12853;DHT22;6495;51.808;7.478;2023-12-29T05:27:35;10.00;99.90
12853;DHT22;6495;51.808;7.478;2023-12-29T05:30:07;10.00;99.90
12853;DHT22;6495;51.808;7.478;2023-12-29T05:32:36;10.00;99.90
12853;DHT22;6495;51.808;7.478;2023-12-29T05:35:05;10.00;99.90
12853;DHT22;6495;51.808;7.478;2023-12-29T05:37:34;10.00;99.90
12853;DHT22;6495;51.808;7.478;2023-12-29T05:40:03;10.00;99.90
12853;DHT22;6495;51.808;7.478;2023-12-29T05:42:32;10.00;99.90
12853;DHT22;6495;51.808;7.478;2023-12-29T05:45:00;10.00;99.90
12853;DHT22;6495;51.808;7.478;2023-12-29T05:47:30;10.00;99.90
12853;DHT22;6495;51.808;7.478;2023-12-29T05:49:58;10.10;99.90
12853;DHT22;6495;51.808;7.478;2023-12-29T05:52:27;10.10;99.90
12853;DHT22;6495;51.808;7.478;2023-12-29T05:54:55;10.10;99.90
12853;DHT22;6495;51.808;7.478;2023-12-29T05:57:24;10.10;99.90
12853;DHT22;6495;51.808;7.478;2023-12-29T05:59:52;10.10;99.90
12853;DHT22;6495;51.808;7.478;2023-12-29T06:02:20;10.10;99.90
12853;DHT22;6495;51.808;7.478;2023-12-29T06:04:50;10.10;99.90
12853;DHT22;6495;51.808;7.478;2023-12-29T06:07:21;10.10;99.90
12853;DHT22;6495;51.808;7.478;2023-12-29T06:09:49;10.10;99.90
12853;DHT22;6495;51.808;7.478;2023-12-29T06:12:18;10.10;99.90
12853;DHT22;6495;51.808;7.478;2023-12-29T06:14:46;10.10;99.90
12853;DHT22;6495;51.808;7.478;2023-12-29T06:17:14;10.10;99.90
12853;DHT22;6495;51.808;7.478;2023-12-29T06:19:43;10.10;99.90
12853;DHT22;6495;51.808;7.478;2023-12-29T06:22:13;10.10;99.90
12853;DHT22;6495;51.808;7.478;2023-12-29T06:24:42;10.10;99.90
12853;DHT22;6495;51.808;7.478;2023-12-29T06:27:11;10.10;99.90
12853;DHT22;6495;51.808;7.478;2023-12-29T06:29:41;10.10;99.90
12853;DHT22;6495;51.808;7.478;2023-12-29T06:32:10;10.10;99.90
12853;DHT22;6495;51.808;7.478;2023-12-29T06:34:38;10.20;99.90
12853;DHT22;6495;51.808;7.478;2023-12-29T06:37:08;10.20;99.90
12853;DHT22;6495;51.808;7.478;2023-12-29T06:39:38;10.20;99.90
12853;DHT22;6495;51.808;7.478;2023-12-29T06:42:07;10.20;99.90
12853;DHT22;6495;51.808;7.478;2023-12-29T06:44:35;10.20;99.90
12853;DHT22;6495;51.808;7.478;2023-12-29T06:47:04;10.20;99.90
12853;DHT22;6495;51.808;7.478;2023-12-29T06:49:34;10.20;99.90
12853;DHT22;6495;51.808;7.478;2023-12-29T06:52:03;10.20;99.90
12853;DHT22;6495;51.808;7.478;2023-12-29T06:54:33;10.20;99.90
12853;DHT22;6495;51.808;7.478;2023-12-29T06:57:04;10.20;99.90
12853;DHT22;6495;51.808;7.478;2023-12-29T06:59:32;10.20;99.90
12853;DHT22;6495;51.808;7.478;2023-12-29T07:02:02;10.20;99.90
12853;DHT22;6495;51.808;7.478;2023-12-29T07:04:31;10.20;99.90
12853;DHT22;6495;51.808;7.478;2023-12-29T07:07:00;10.20;99.90
12853;DHT22;6495;51.808;7.478;2023-12-29T07:09:29;10.20;99.90
12853;DHT22;6495;51.808;7.478;2023-12-29T07:11:57;10.20;99.90
12853;DHT22;6495;51.808;7.478;2023-12-29T07:14:27;10.20;99.90
12853;DHT22;6495;51.808;7.478;2023-12-29T07:16:55;10.20;99.90
12853;DHT22;6495;51.808;7.478;2023-12-29T07:19:25;10.20;99.90
12853;DHT22;6495;51.808;7.478;2023-12-29T07:21:56;10.20;99.90
12853;DHT22;6495;51.808;7.478;2023-12-29T07:24:25;10.20;99.90
12853;DHT22;6495;51.808;7.478;2023-12-29T07:26:53;10.30;99.90
12853;DHT22;6495;51.808;7.478;2023-12-29T07:29:22;10.20;99.90
12853;DHT22;6495;51.808;7.478;2023-12-29T07:31:52;10.20;99.90
12853;DHT22;6495;51.808;7.478;2023-12-29T07:34:21;10.30;99.90
12853;DHT22;6495;51.808;7.478;2023-12-29T07:36:50;10.30;99.90
12853;DHT22;6495;51.808;7.478;2023-12-29T07:39:18;10.30;99.90
12853;DHT22;6495;51.808;7.478;2023-12-29T07:41:47;10.30;99.90
12853;DHT22;6495;51.808;7.478;2023-12-29T07:44:18;10.30;99.90
12853;DHT22;6495;51.808;7.478;2023-12-29T07:46:46;10.30;99.90
12853;DHT22;6495;51.808;7.478;2023-12-29T07:49:16;10.30;99.90
12853;DHT22;6495;51.808;7.478;2023-12-29T07:51:46;10.30;99.90
12853;DHT22;6495;51.808;7.478;2023-12-29T07:54:15;10.30;99.90
12853;DHT22;6495;51.808;7.478;2023-12-29T07:56:44;10.30;99.90
12853;DHT22;6495;51.808;7.478;2023-12-29T07:59:12;10.30;99.90
12853;DHT22;6495;51.808;7.478;2023-12-29T08:01:41;10.30;99.90
12853;DHT22;6495;51.808;7.478;2023-12-29T08:04:09;10.30;99.90
12853;DHT22;6495;51.808;7.478;2023-12-29T08:06:42;10.20;99.90
12853;DHT22;6495;51.808;7.478;2023-12-29T08:09:13;10.20;99.90
12853;DHT22;6495;51.808;7.478;2023-12-29T08:11:42;10.20;99.90
12853;DHT22;6495;51.808;7.478;2023-12-29T08:14:10;10.20;99.90
12853;DHT22;6495;51.808;7.478;2023-12-29T08:16:39;10.20;99.90
12853;DHT22;6495;51.808;7.478;2023-12-29T08:19:08;10.10;99.90
12853;DHT22;6495;51.808;7.478;2023-12-29T08:21:38;10.10;99.90
12853;DHT22;6495;51.808;7.478;2023-12-29T08:24:08;10.10;99.90
12853;DHT22;6495;51.808;7.478;2023-12-29T08:26:43;10.10;99.90
12853;DHT22;6495;51.808;7.478;2023-12-29T08:29:13;10.10;99.90
12853;DHT22;6495;51.808;7.478;2023-12-29T08:31:42;10.10;99.90
12853;DHT22;6495;51.808;7.478;2023-12-29T08:34:12;10.10;99.90
12853;DHT22;6495;51.808;7.478;2023-12-29T08:36:52;10.10;99.90
12853;DHT22;6495;51.808;7.478;2023-12-29T08:39:27;10.10;99.90
12853;DHT22;6495;51.808;7.478;2023-12-29T08:42:22;10.10;99.90
12853;DHT22;6495;51.808;7.478;2023-12-29T08:45:14;10.00;99.90
12853;DHT22;6495;51.808;7.478;2023-12-29T08:47:42;10.00;99.90
12853;DHT22;6495;51.808;7.478;2023-12-29T08:50:34;10.10;99.90
12853;DHT22;6495;51.808;7.478;2023-12-29T08:53:19;10.00;99.90
12853;DHT22;6495;51.808;7.478;2023-12-29T08:55:49;10.00;99.90
12853;DHT22;6495;51.808;7.478;2023-12-29T08:58:17;10.00;99.90
12853;DHT22;6495;51.808;7.478;2023-12-29T09:00:46;10.00;99.90
12853;DHT22;6495;51.808;7.478;2023-12-29T09:03:15;10.00;99.90
12853;DHT22;6495;51.808;7.478;2023-12-29T09:05:44;10.00;99.90
12853;DHT22;6495;51.808;7.478;2023-12-29T09:08:13;10.00;99.90
12853;DHT22;6495;51.808;7.478;2023-12-29T09:10:44;10.00;99.90
12853;DHT22;6495;51.808;7.478;2023-12-29T09:13:14;10.00;99.90
12853;DHT22;6495;51.808;7.478;2023-12-29T09:15:53;10.00;99.90
12853;DHT22;6495;51.808;7.478;2023-12-29T09:18:23;10.00;99.90
12853;DHT22;6495;51.808;7.478;2023-12-29T09:20:51;10.00;99.90
12853;DHT22;6495;51.808;7.478;2023-12-29T09:23:20;10.00;99.90
12853;DHT22;6495;51.808;7.478;2023-12-29T09:25:49;10.00;99.90
12853;DHT22;6495;51.808;7.478;2023-12-29T09:28:22;10.10;99.90
12853;DHT22;6495;51.808;7.478;2023-12-29T09:30:54;10.00;99.90
12853;DHT22;6495;51.808;7.478;2023-12-29T09:33:23;10.00;99.90
12853;DHT22;6495;51.808;7.478;2023-12-29T09:35:52;10.00;99.90
12853;DHT22;6495;51.808;7.478;2023-12-29T09:38:20;10.00;99.90
12853;DHT22;6495;51.808;7.478;2023-12-29T09:40:49;10.00;99.90
12853;DHT22;6495;51.808;7.478;2023-12-29T09:43:21;10.10;99.90
12853;DHT22;6495;51.808;7.478;2023-12-29T09:45:51;10.10;99.90
12853;DHT22;6495;51.808;7.478;2023-12-29T09:48:22;10.10;99.90
12853;DHT22;6495;51.808;7.478;2023-12-29T09:50:56;10.10;99.90
12853;DHT22;6495;51.808;7.478;2023-12-29T09:53:25;10.10;99.90
12853;DHT22;6495;51.808;7.478;2023-12-29T09:55:57;10.10;99.90
12853;DHT22;6495;51.808;7.478;2023-12-29T09:58:30;10.10;99.90
12853;DHT22;6495;51.808;7.478;2023-12-29T10:01:02;10.10;99.90
12853;DHT22;6495;51.808;7.478;2023-12-29T10:03:33;10.10;99.90
12853;DHT22;6495;51.808;7.478;2023-12-29T10:06:06;10.10;99.90
12853;DHT22;6495;51.808;7.478;2023-12-29T10:08:37;10.20;99.90
12853;DHT22;6495;51.808;7.478;2023-12-29T10:11:10;10.20;99.90
12853;DHT22;6495;51.808;7.478;2023-12-29T10:13:43;10.20;99.90
12853;DHT22;6495;51.808;7.478;2023-12-29T10:16:18;10.20;99.90
12853;DHT22;6495;51.808;7.478;2023-12-29T10:19:06;10.20;99.90
12853;DHT22;6495;51.808;7.478;2023-12-29T10:21:46;10.30;99.90
12853;DHT22;6495;51.808;7.478;2023-12-29T10:24:27;10.30;99.90
12853;DHT22;6495;51.808;7.478;2023-12-29T10:27:13;10.30;99.90
12853;DHT22;6495;51.808;7.478;2023-12-29T10:29:43;10.30;99.90
12853;DHT22;6495;51.808;7.478;2023-12-29T10:32:12;10.30;99.90
12853;DHT22;6495;51.808;7.478;2023-12-29T10:34:40;10.30;99.90
12853;DHT22;6495;51.808;7.478;2023-12-29T10:37:09;10.30;99.90
12853;DHT22;6495;51.808;7.478;2023-12-29T10:39:55;10.30;99.90
12853;DHT22;6495;51.808;7.478;2023-12-29T10:42:24;10.30;99.90
12853;DHT22;6495;51.808;7.478;2023-12-29T10:45:06;10.30;99.90
12853;DHT22;6495;51.808;7.478;2023-12-29T10:47:35;10.40;99.90
12853;DHT22;6495;51.808;7.478;2023-12-29T10:50:05;10.30;99.90
12853;DHT22;6495;51.808;7.478;2023-12-29T10:52:34;10.40;99.90
12853;DHT22;6495;51.808;7.478;2023-12-29T10:55:08;10.40;99.90
12853;DHT22;6495;51.808;7.478;2023-12-29T10:57:39;10.40;99.90
12853;DHT22;6495;51.808;7.478;2023-12-29T11:00:11;10.40;99.90
12853;DHT22;6495;51.808;7.478;2023-12-29T11:02:41;10.40;99.90
12853;DHT22;6495;51.808;7.478;2023-12-29T11:05:10;10.40;99.90
12853;DHT22;6495;51.808;7.478;2023-12-29T11:07:42;10.40;99.90
12853;DHT22;6495;51.808;7.478;2023-12-29T11:10:10;10.40;99.90
12853;DHT22;6495;51.808;7.478;2023-12-29T11:12:40;10.40;99.90
12853;DHT22;6495;51.808;7.478;2023-12-29T11:15:52;10.40;99.90
12853;DHT22;6495;51.808;7.478;2023-12-29T11:19:10;10.40;99.90
12853;DHT22;6495;51.808;7.478;2023-12-29T11:22:31;10.50;99.90
12853;DHT22;6495;51.808;7.478;2023-12-29T11:26:37;10.50;99.90
12853;DHT22;6495;51.808;7.478;2023-12-29T11:31:15;10.50;99.90
12853;DHT22;6495;51.808;7.478;2023-12-29T11:42:31;10.50;99.90
12853;DHT22;6495;51.808;7.478;2023-12-29T11:45:33;10.50;99.90
12853;DHT22;6495;51.808;7.478;2023-12-29T11:48:58;10.50;99.90
12853;DHT22;6495;51.808;7.478;2023-12-29T11:51:42;10.50;99.90
12853;DHT22;6495;51.808;7.478;2023-12-29T11:55:21;10.50;99.90
12853;DHT22;6495;51.808;7.478;2023-12-29T12:14:45;10.60;99.90
12853;DHT22;6495;51.808;7.478;2023-12-29T12:17:32;10.60;99.90
12853;DHT22;6495;51.808;7.478;2023-12-29T12:20:08;10.60;99.90
12853;DHT22;6495;51.808;7.478;2023-12-29T12:22:58;10.60;99.90
12853;DHT22;6495;51.808;7.478;2023-12-29T12:25:31;10.60;99.90
12853;DHT22;6495;51.808;7.478;2023-12-29T12:28:05;10.60;99.90
12853;DHT22;6495;51.808;7.478;2023-12-29T12:30:36;10.70;99.90
12853;DHT22;6495;51.808;7.478;2023-12-29T12:33:05;10.70;99.90
12853;DHT22;6495;51.808;7.478;2023-12-29T12:35:36;10.70;99.90
12853;DHT22;6495;51.808;7.478;2023-12-29T12:40:41;10.70;99.90
12853;DHT22;6495;51.808;7.478;2023-12-29T12:43:13;10.80;99.90
12853;DHT22;6495;51.808;7.478;2023-12-29T12:45:48;10.80;99.90
12853;DHT22;6495;51.808;7.478;2023-12-29T12:48:35;10.80;99.90
12853;DHT22;6495;51.808;7.478;2023-12-29T12:51:10;10.80;99.90
12853;DHT22;6495;51.808;7.478;2023-12-29T12:54:08;10.80;99.90
12853;DHT22;6495;51.808;7.478;2023-12-29T12:56:55;10.80;99.90
12853;DHT22;6495;51.808;7.478;2023-12-29T12:59:45;10.80;99.90
12853;DHT22;6495;51.808;7.478;2023-12-29T13:02:44;10.90;99.90
12853;DHT22;6495;51.808;7.478;2023-12-29T13:05:21;10.90;99.90
12853;DHT22;6495;51.808;7.478;2023-12-29T13:08:09;10.90;99.90
12853;DHT22;6495;51.808;7.478;2023-12-29T13:11:04;10.90;99.90
12853;DHT22;6495;51.808;7.478;2023-12-29T13:14:05;10.90;99.90
12853;DHT22;6495;51.808;7.478;2023-12-29T13:16:40;10.90;99.90
12853;DHT22;6495;51.808;7.478;2023-12-29T13:19:23;10.90;99.90
12853;DHT22;6495;51.808;7.478;2023-12-29T13:22:15;10.90;99.90
12853;DHT22;6495;51.808;7.478;2023-12-29T13:25:20;10.90;99.90
12853;DHT22;6495;51.808;7.478;2023-12-29T13:28:02;10.90;99.90
12853;DHT22;6495;51.808;7.478;2023-12-29T13:30:38;10.90;99.90
12853;DHT22;6495;51.808;7.478;2023-12-29T13:33:14;10.90;99.90
12853;DHT22;6495;51.808;7.478;2023-12-29T13:35:56;10.90;99.90
12853;DHT22;6495;51.808;7.478;2023-12-29T13:38:44;10.90;99.90
12853;DHT22;6495;51.808;7.478;2023-12-29T13:41:34;10.90;99.90
12853;DHT22;6495;51.808;7.478;2023-12-29T13:44:34;10.90;99.90
12853;DHT22;6495;51.808;7.478;2023-12-29T13:47:12;10.80;99.90
12853;DHT22;6495;51.808;7.478;2023-12-29T13:49:54;10.80;99.90
12853;DHT22;6495;51.808;7.478;2023-12-29T13:52:34;10.70;99.90
12853;DHT22;6495;51.808;7.478;2023-12-29T13:55:06;10.70;99.90
12853;DHT22;6495;51.808;7.478;2023-12-29T13:57:49;10.70;99.90
12853;DHT22;6495;51.808;7.478;2023-12-29T14:00:21;10.70;99.90
12853;DHT22;6495;51.808;7.478;2023-12-29T14:03:01;10.60;99.90
12853;DHT22;6495;51.808;7.478;2023-12-29T14:05:35;10.60;99.90
12853;DHT22;6495;51.808;7.478;2023-12-29T14:08:23;10.60;99.90
12853;DHT22;6495;51.808;7.478;2023-12-29T14:10:53;10.60;99.90
12853;DHT22;6495;51.808;7.478;2023-12-29T14:13:25;10.50;99.90
12853;DHT22;6495;51.808;7.478;2023-12-29T14:15:58;10.50;99.90
12853;DHT22;6495;51.808;7.478;2023-12-29T14:18:42;10.50;99.90
12853;DHT22;6495;51.808;7.478;2023-12-29T14:21:33;10.40;99.90
12853;DHT22;6495;51.808;7.478;2023-12-29T14:24:10;10.40;99.90
12853;DHT22;6495;51.808;7.478;2023-12-29T14:26:41;10.40;99.90
12853;DHT22;6495;51.808;7.478;2023-12-29T14:29:14;10.40;99.90
12853;DHT22;6495;51.808;7.478;2023-12-29T14:31:46;10.40;99.90
12853;DHT22;6495;51.808;7.478;2023-12-29T14:34:25;10.40;99.90
12853;DHT22;6495;51.808;7.478;2023-12-29T14:36:56;10.40;99.90
12853;DHT22;6495;51.808;7.478;2023-12-29T14:39:27;10.30;99.90
12853;DHT22;6495;51.808;7.478;2023-12-29T14:41:55;10.30;99.90
12853;DHT22;6495;51.808;7.478;2023-12-29T14:44:24;10.30;99.90
12853;DHT22;6495;51.808;7.478;2023-12-29T14:46:53;10.30;99.90
12853;DHT22;6495;51.808;7.478;2023-12-29T14:49:21;10.30;99.90
12853;DHT22;6495;51.808;7.478;2023-12-29T14:51:50;10.30;99.90
12853;DHT22;6495;51.808;7.478;2023-12-29T14:54:22;10.30;99.90
12853;DHT22;6495;51.808;7.478;2023-12-29T14:56:52;10.20;99.90
12853;DHT22;6495;51.808;7.478;2023-12-29T14:59:34;10.20;99.90
12853;DHT22;6495;51.808;7.478;2023-12-29T15:02:03;10.20;99.90
12853;DHT22;6495;51.808;7.478;2023-12-29T15:04:35;10.10;99.90
12853;DHT22;6495;51.808;7.478;2023-12-29T15:07:04;10.10;99.90
12853;DHT22;6495;51.808;7.478;2023-12-29T15:09:35;10.10;99.90
12853;DHT22;6495;51.808;7.478;2023-12-29T15:12:07;10.10;99.90
12853;DHT22;6495;51.808;7.478;2023-12-29T15:14:42;10.00;99.90
12853;DHT22;6495;51.808;7.478;2023-12-29T15:17:19;10.10;99.90
12853;DHT22;6495;51.808;7.478;2023-12-29T15:19:53;10.00;99.90
12853;DHT22;6495;51.808;7.478;2023-12-29T15:22:42;10.00;99.90
12853;DHT22;6495;51.808;7.478;2023-12-29T15:25:14;10.00;99.90
12853;DHT22;6495;51.808;7.478;2023-12-29T15:27:44;10.00;99.90
12853;DHT22;6495;51.808;7.478;2023-12-29T15:30:21;10.00;99.90
12853;DHT22;6495;51.808;7.478;2023-12-29T15:32:53;9.90;99.90
12853;DHT22;6495;51.808;7.478;2023-12-29T15:35:30;9.90;99.90
12853;DHT22;6495;51.808;7.478;2023-12-29T15:38:02;9.90;99.90
12853;DHT22;6495;51.808;7.478;2023-12-29T15:40:35;9.90;99.90
12853;DHT22;6495;51.808;7.478;2023-12-29T15:43:09;9.90;99.90
12853;DHT22;6495;51.808;7.478;2023-12-29T15:45:42;9.90;99.90
12853;DHT22;6495;51.808;7.478;2023-12-29T15:48:53;9.90;99.90
12853;DHT22;6495;51.808;7.478;2023-12-29T15:51:29;9.90;99.90
12853;DHT22;6495;51.808;7.478;2023-12-29T15:54:12;9.90;99.90
12853;DHT22;6495;51.808;7.478;2023-12-29T15:56:43;9.90;99.90
12853;DHT22;6495;51.808;7.478;2023-12-29T15:59:26;9.90;99.90
12853;DHT22;6495;51.808;7.478;2023-12-29T16:01:55;9.90;99.90
12853;DHT22;6495;51.808;7.478;2023-12-29T16:04:26;9.90;99.90
12853;DHT22;6495;51.808;7.478;2023-12-29T16:06:55;9.90;99.90
12853;DHT22;6495;51.808;7.478;2023-12-29T16:09:26;9.90;99.90
12853;DHT22;6495;51.808;7.478;2023-12-29T16:11:58;9.90;99.90
12853;DHT22;6495;51.808;7.478;2023-12-29T16:14:46;9.90;99.90
12853;DHT22;6495;51.808;7.478;2023-12-29T16:18:13;9.90;99.90
12853;DHT22;6495;51.808;7.478;2023-12-29T16:21:21;9.90;99.90
12853;DHT22;6495;51.808;7.478;2023-12-29T16:24:22;9.90;99.90
12853;DHT22;6495;51.808;7.478;2023-12-29T16:26:59;10.00;99.90
12853;DHT22;6495;51.808;7.478;2023-12-29T16:29:33;9.90;99.90
12853;DHT22;6495;51.808;7.478;2023-12-29T16:32:34;9.90;99.90
12853;DHT22;6495;51.808;7.478;2023-12-29T16:35:10;9.90;99.90
12853;DHT22;6495;51.808;7.478;2023-12-29T16:37:53;10.00;99.90
12853;DHT22;6495;51.808;7.478;2023-12-29T16:40:35;10.00;99.90
12853;DHT22;6495;51.808;7.478;2023-12-29T16:43:10;9.90;99.90
12853;DHT22;6495;51.808;7.478;2023-12-29T16:46:00;9.90;99.90
12853;DHT22;6495;51.808;7.478;2023-12-29T16:48:46;9.90;99.90
12853;DHT22;6495;51.808;7.478;2023-12-29T16:51:41;10.00;99.90
12853;DHT22;6495;51.808;7.478;2023-12-29T16:54:18;10.00;99.90
12853;DHT22;6495;51.808;7.478;2023-12-29T16:56:54;10.00;99.90
12853;DHT22;6495;51.808;7.478;2023-12-29T16:59:23;10.00;99.90
12853;DHT22;6495;51.808;7.478;2023-12-29T17:02:12;10.00;99.90